sensor_id;sensor_type;location;lat;lon;timestamp;pressure;altitude;pressure_sealevel;temperature;humidity
71970;BME280;59838;52.152;5.436;2023-06-14T00:00:32;101628.91;;;16.50;58.25
71970;BME280;59838;52.152;5.436;2023-06-14T00:03:01;101633.78;;;16.53;58.22
71970;BME280;59838;52.152;5.436;2023-06-14T00:05:30;101635.00;;;16.51;58.31
71970;BME280;59838;52.152;5.436;2023-06-14T00:07:58;101639.00;;;16.60;57.91
71970;BME280;59838;52.152;5.436;2023-06-14T00:10:26;101636.38;;;16.60;58.20
71970;BME280;59838;52.152;5.436;2023-06-14T00:12:57;101641.63;;;16.60;58.09
71970;BME280;59838;52.152;5.436;2023-06-14T00:15:23;101631.97;;;16.67;57.63
71970;BME280;59838;52.152;5.436;2023-06-14T00:17:50;101632.75;;;16.68;57.66
71970;BME280;59838;52.152;5.436;2023-06-14T00:20:17;101634.78;;;16.59;57.81
71970;BME280;59838;52.152;5.436;2023-06-14T00:22:44;101631.16;;;16.73;57.14
71970;BME280;59838;52.152;5.436;2023-06-14T00:25:11;101632.94;;;16.73;56.90
71970;BME280;59838;52.152;5.436;2023-06-14T00:27:54;101637.81;;;16.69;57.38
71970;BME280;59838;52.152;5.436;2023-06-14T00:30:21;101645.06;;;16.67;57.02
71970;BME280;59838;52.152;5.436;2023-06-14T00:32:48;101636.59;;;16.78;56.50
71970;BME280;59838;52.152;5.436;2023-06-14T00:35:15;101632.53;;;16.82;56.47
71970;BME280;59838;52.152;5.436;2023-06-14T00:37:42;101647.50;;;16.89;56.39
71970;BME280;59838;52.152;5.436;2023-06-14T00:40:08;101636.78;;;16.90;55.93
71970;BME280;59838;52.152;5.436;2023-06-14T00:42:35;101636.59;;;16.92;56.04
71970;BME280;59838;52.152;5.436;2023-06-14T00:45:01;101635.78;;;16.98;56.16
71970;BME280;59838;52.152;5.436;2023-06-14T00:47:28;101639.22;;;16.92;55.90
71970;BME280;59838;52.152;5.436;2023-06-14T00:49:55;101634.16;;;16.90;55.45
71970;BME280;59838;52.152;5.436;2023-06-14T00:52:23;101636.56;;;16.98;55.42
71970;BME280;59838;52.152;5.436;2023-06-14T00:54:54;101634.94;;;16.97;55.60
71970;BME280;59838;52.152;5.436;2023-06-14T00:57:21;101638.59;;;16.96;55.35
71970;BME280;59838;52.152;5.436;2023-06-14T00:59:48;101632.94;;;16.99;55.49
71970;BME280;59838;52.152;5.436;2023-06-14T01:02:15;101639.22;;;16.92;55.20
71970;BME280;59838;52.152;5.436;2023-06-14T01:04:45;101635.16;;;16.89;55.59
71970;BME280;59838;52.152;5.436;2023-06-14T01:09:58;101640.22;;;16.77;55.49
71970;BME280;59838;52.152;5.436;2023-06-14T01:12:47;101639.22;;;16.72;55.63
71970;BME280;59838;52.152;5.436;2023-06-14T01:15:17;101645.06;;;16.67;55.87
71970;BME280;59838;52.152;5.436;2023-06-14T01:17:44;101640.81;;;16.66;55.78
71970;BME280;59838;52.152;5.436;2023-06-14T01:20:13;101637.22;;;16.60;55.99
71970;BME280;59838;52.152;5.436;2023-06-14T01:22:54;101634.38;;;16.49;56.38
71970;BME280;59838;52.152;5.436;2023-06-14T01:25:21;101635.59;;;16.39;56.83
71970;BME280;59838;52.152;5.436;2023-06-14T01:28:06;101638.00;;;16.34;56.62
71970;BME280;59838;52.152;5.436;2023-06-14T01:30:42;101634.78;;;16.39;56.83
71970;BME280;59838;52.152;5.436;2023-06-14T01:33:16;101630.75;;;16.36;56.78
71970;BME280;59838;52.152;5.436;2023-06-14T01:35:46;101633.78;;;16.33;57.20
71970;BME280;59838;52.152;5.436;2023-06-14T01:38:13;101627.69;;;16.26;57.24
71970;BME280;59838;52.152;5.436;2023-06-14T01:40:42;101635.78;;;16.24;57.31
71970;BME280;59838;52.152;5.436;2023-06-14T01:43:13;101645.66;;;16.22;57.35
71970;BME280;59838;52.152;5.436;2023-06-14T01:45:42;101635.56;;;16.19;57.11
71970;BME280;59838;52.152;5.436;2023-06-14T01:48:09;101643.03;;;16.22;57.06
71970;BME280;59838;52.152;5.436;2023-06-14T01:50:36;101642.44;;;16.14;57.22
71970;BME280;59838;52.152;5.436;2023-06-14T01:53:02;101644.03;;;16.08;57.61
71970;BME280;59838;52.152;5.436;2023-06-14T01:55:29;101644.78;;;15.95;57.85
71970;BME280;59838;52.152;5.436;2023-06-14T01:57:55;101647.59;;;15.87;58.22
71970;BME280;59838;52.152;5.436;2023-06-14T02:00:22;101645.34;;;15.77;58.43
71970;BME280;59838;52.152;5.436;2023-06-14T02:02:48;101644.56;;;15.77;58.64
71970;BME280;59838;52.152;5.436;2023-06-14T02:05:15;101642.06;;;15.62;58.93
71970;BME280;59838;52.152;5.436;2023-06-14T02:07:45;101641.84;;;15.57;59.30
71970;BME280;59838;52.152;5.436;2023-06-14T02:10:13;101638.78;;;15.46;59.46
71970;BME280;59838;52.152;5.436;2023-06-14T02:12:40;101639.94;;;15.37;59.54
71970;BME280;59838;52.152;5.436;2023-06-14T02:15:07;101651.19;;;15.31;59.85
71970;BME280;59838;52.152;5.436;2023-06-14T02:17:34;101642.72;;;15.29;59.74
71970;BME280;59838;52.152;5.436;2023-06-14T02:20:01;101638.13;;;15.31;59.70
71970;BME280;59838;52.152;5.436;2023-06-14T02:22:31;101633.91;;;15.36;59.43
71970;BME280;59838;52.152;5.436;2023-06-14T02:24:57;101638.13;;;15.38;59.35
71970;BME280;59838;52.152;5.436;2023-06-14T02:27:28;101636.72;;;15.35;59.42
71970;BME280;59838;52.152;5.436;2023-06-14T02:29:54;101641.13;;;15.34;59.26
71970;BME280;59838;52.152;5.436;2023-06-14T02:32:21;101647.94;;;15.29;59.47
71970;BME280;59838;52.152;5.436;2023-06-14T02:34:47;101648.75;;;15.23;59.53
71970;BME280;59838;52.152;5.436;2023-06-14T02:37:16;101656.97;;;15.20;59.85
71970;BME280;59838;52.152;5.436;2023-06-14T02:39:43;101647.84;;;15.09;60.11
71970;BME280;59838;52.152;5.436;2023-06-14T02:42:09;101646.75;;;14.96;60.61
71970;BME280;59838;52.152;5.436;2023-06-14T02:44:36;101644.47;;;14.87;60.88
71970;BME280;59838;52.152;5.436;2023-06-14T02:47:04;101640.41;;;14.77;61.17
71970;BME280;59838;52.152;5.436;2023-06-14T02:49:31;101641.78;;;14.73;61.23
71970;BME280;59838;52.152;5.436;2023-06-14T02:51:57;101654.84;;;14.73;61.25
71970;BME280;59838;52.152;5.436;2023-06-14T02:54:24;101654.84;;;14.73;61.44
71970;BME280;59838;52.152;5.436;2023-06-14T02:56:50;101662.88;;;14.72;61.28
71970;BME280;59838;52.152;5.436;2023-06-14T02:59:17;101663.91;;;14.71;61.51
71970;BME280;59838;52.152;5.436;2023-06-14T03:01:43;101663.25;;;14.69;61.53
71970;BME280;59838;52.152;5.436;2023-06-14T03:04:10;101662.66;;;14.67;61.49
71970;BME280;59838;52.152;5.436;2023-06-14T03:06:36;101668.69;;;14.67;61.45
71970;BME280;59838;52.152;5.436;2023-06-14T03:09:03;101671.28;;;14.67;61.56
71970;BME280;59838;52.152;5.436;2023-06-14T03:11:35;101674.94;;;14.66;61.66
71970;BME280;59838;52.152;5.436;2023-06-14T03:14:02;101674.09;;;14.66;61.65
71970;BME280;59838;52.152;5.436;2023-06-14T03:16:30;101679.69;;;14.62;61.61
71970;BME280;59838;52.152;5.436;2023-06-14T03:18:58;101676.03;;;14.57;61.81
71970;BME280;59838;52.152;5.436;2023-06-14T03:21:24;101670.38;;;14.53;61.76
71970;BME280;59838;52.152;5.436;2023-06-14T03:23:52;101679.00;;;14.54;62.05
71970;BME280;59838;52.152;5.436;2023-06-14T03:26:19;101680.00;;;14.53;61.88
71970;BME280;59838;52.152;5.436;2023-06-14T03:28:46;101688.75;;;14.60;61.88
71970;BME280;59838;52.152;5.436;2023-06-14T03:31:13;101682.53;;;14.61;61.96
71970;BME280;59838;52.152;5.436;2023-06-14T03:33:40;101680.16;;;14.66;62.01
71970;BME280;59838;52.152;5.436;2023-06-14T03:36:07;101689.59;;;14.67;62.32
71970;BME280;59838;52.152;5.436;2023-06-14T03:38:34;101682.53;;;14.61;62.92
71970;BME280;59838;52.152;5.436;2023-06-14T03:41:01;101684.00;;;14.70;62.88
71970;BME280;59838;52.152;5.436;2023-06-14T03:43:27;101688.91;;;14.80;62.09
71970;BME280;59838;52.152;5.436;2023-06-14T03:45:54;101690.81;;;14.65;62.37
71970;BME280;59838;52.152;5.436;2023-06-14T03:48:21;101689.38;;;14.62;62.74
71970;BME280;59838;52.152;5.436;2023-06-14T03:50:47;101689.44;;;14.97;62.74
71970;BME280;59838;52.152;5.436;2023-06-14T03:53:14;101689.91;;;15.77;61.05
71970;BME280;59838;52.152;5.436;2023-06-14T03:55:41;101691.66;;;16.38;59.01
71970;BME280;59838;52.152;5.436;2023-06-14T03:58:10;101693.03;;;16.21;58.32
71970;BME280;59838;52.152;5.436;2023-06-14T04:00:37;101701.06;;;15.99;58.23
71970;BME280;59838;52.152;5.436;2023-06-14T04:03:04;101700.50;;;15.69;58.72
71970;BME280;59838;52.152;5.436;2023-06-14T04:05:32;101704.09;;;15.61;59.35
71970;BME280;59838;52.152;5.436;2023-06-14T04:07:58;101712.16;;;15.60;59.49
71970;BME280;59838;52.152;5.436;2023-06-14T04:10:27;101708.09;;;15.50;59.76
71970;BME280;59838;52.152;5.436;2023-06-14T04:12:54;101714.22;;;15.71;59.58
71970;BME280;59838;52.152;5.436;2023-06-14T04:15:20;101720.69;;;16.23;59.05
71970;BME280;59838;52.152;5.436;2023-06-14T04:17:48;101717.34;;;17.75;55.71
71970;BME280;59838;52.152;5.436;2023-06-14T04:20:14;101714.72;;;19.03;52.25
71970;BME280;59838;52.152;5.436;2023-06-14T04:22:41;101715.19;;;19.36;51.08
71970;BME280;59838;52.152;5.436;2023-06-14T04:25:09;101718.25;;;19.33;51.06
71970;BME280;59838;52.152;5.436;2023-06-14T04:27:36;101715.06;;;19.31;51.23
71970;BME280;59838;52.152;5.436;2023-06-14T04:30:03;101713.22;;;19.50;50.39
71970;BME280;59838;52.152;5.436;2023-06-14T04:32:30;101715.56;;;19.59;50.19
71970;BME280;59838;52.152;5.436;2023-06-14T04:35:00;101725.16;;;19.71;50.38
71970;BME280;59838;52.152;5.436;2023-06-14T04:37:28;101722.50;;;19.71;50.29
71970;BME280;59838;52.152;5.436;2023-06-14T04:39:56;101720.06;;;19.88;49.76
71970;BME280;59838;52.152;5.436;2023-06-14T04:42:24;101724.28;;;20.08;49.13
71970;BME280;59838;52.152;5.436;2023-06-14T04:44:57;101720.75;;;20.68;49.14
71970;BME280;59838;52.152;5.436;2023-06-14T04:47:23;101725.81;;;21.29;47.08
71970;BME280;59838;52.152;5.436;2023-06-14T04:49:56;101722.84;;;21.78;45.82
71970;BME280;59838;52.152;5.436;2023-06-14T04:52:23;101722.75;;;22.01;45.94
71970;BME280;59838;52.152;5.436;2023-06-14T04:54:52;101725.66;;;22.17;45.25
71970;BME280;59838;52.152;5.436;2023-06-14T04:57:20;101727.06;;;22.07;45.01
71970;BME280;59838;52.152;5.436;2023-06-14T04:59:48;101724.53;;;22.13;45.42
71970;BME280;59838;52.152;5.436;2023-06-14T05:02:18;101732.81;;;22.04;45.48
71970;BME280;59838;52.152;5.436;2023-06-14T05:04:44;101733.81;;;22.15;45.26
71970;BME280;59838;52.152;5.436;2023-06-14T05:07:11;101737.56;;;22.02;45.74
71970;BME280;59838;52.152;5.436;2023-06-14T05:09:38;101731.78;;;21.48;46.50
71970;BME280;59838;52.152;5.436;2023-06-14T05:12:05;101740.72;;;21.47;47.32
71970;BME280;59838;52.152;5.436;2023-06-14T05:14:34;101735.31;;;21.30;47.63
71970;BME280;59838;52.152;5.436;2023-06-14T05:17:01;101734.81;;;21.04;48.08
71970;BME280;59838;52.152;5.436;2023-06-14T05:19:28;101745.47;;;20.74;49.29
71970;BME280;59838;52.152;5.436;2023-06-14T05:21:55;101747.00;;;20.51;49.44
71970;BME280;59838;52.152;5.436;2023-06-14T05:24:21;101748.03;;;20.08;50.72
71970;BME280;59838;52.152;5.436;2023-06-14T05:26:48;101750.84;;;19.95;50.68
71970;BME280;59838;52.152;5.436;2023-06-14T05:29:15;101746.50;;;20.31;51.13
71970;BME280;59838;52.152;5.436;2023-06-14T05:31:42;101744.91;;;20.84;47.67
71970;BME280;59838;52.152;5.436;2023-06-14T05:34:08;101738.78;;;21.18;47.75
71970;BME280;59838;52.152;5.436;2023-06-14T05:36:35;101738.63;;;22.47;45.98
71970;BME280;59838;52.152;5.436;2023-06-14T05:39:03;101737.72;;;23.31;43.28
71970;BME280;59838;52.152;5.436;2023-06-14T05:41:30;101743.50;;;23.95;41.32
71970;BME280;59838;52.152;5.436;2023-06-14T05:43:57;101749.22;;;24.41;39.93
71970;BME280;59838;52.152;5.436;2023-06-14T05:46:24;101758.16;;;24.57;38.89
71970;BME280;59838;52.152;5.436;2023-06-14T05:48:52;101754.97;;;24.27;40.53
71970;BME280;59838;52.152;5.436;2023-06-14T05:51:19;101753.03;;;24.88;40.22
71970;BME280;59838;52.152;5.436;2023-06-14T05:53:47;101753.34;;;24.91;38.76
71970;BME280;59838;52.152;5.436;2023-06-14T05:56:14;101761.63;;;24.30;39.62
71970;BME280;59838;52.152;5.436;2023-06-14T05:58:41;101761.69;;;24.08;39.81
71970;BME280;59838;52.152;5.436;2023-06-14T06:01:07;101764.97;;;24.48;39.92
71970;BME280;59838;52.152;5.436;2023-06-14T06:03:34;101775.06;;;24.51;37.68
71970;BME280;59838;52.152;5.436;2023-06-14T06:06:01;101772.97;;;24.20;38.83
71970;BME280;59838;52.152;5.436;2023-06-14T06:08:27;101769.69;;;24.13;39.65
71970;BME280;59838;52.152;5.436;2023-06-14T06:10:54;101770.34;;;24.25;38.36
71970;BME280;59838;52.152;5.436;2023-06-14T06:13:20;101773.53;;;24.27;39.72
71970;BME280;59838;52.152;5.436;2023-06-14T06:15:47;101777.09;;;24.66;39.77
71970;BME280;59838;52.152;5.436;2023-06-14T06:18:13;101776.94;;;24.82;37.75
71970;BME280;59838;52.152;5.436;2023-06-14T06:20:40;101780.22;;;25.00;36.72
71970;BME280;59838;52.152;5.436;2023-06-14T06:23:06;101780.47;;;25.46;37.65
71970;BME280;59838;52.152;5.436;2023-06-14T06:25:34;101778.31;;;25.33;36.91
71970;BME280;59838;52.152;5.436;2023-06-14T06:28:00;101781.19;;;25.26;37.34
71970;BME280;59838;52.152;5.436;2023-06-14T06:30:27;101788.09;;;24.85;37.81
71970;BME280;59838;52.152;5.436;2023-06-14T06:32:54;101779.44;;;24.99;36.85
71970;BME280;59838;52.152;5.436;2023-06-14T06:35:22;101783.50;;;24.75;38.39
71970;BME280;59838;52.152;5.436;2023-06-14T06:37:48;101778.34;;;24.95;37.54
71970;BME280;59838;52.152;5.436;2023-06-14T06:40:15;101791.38;;;25.40;36.56
71970;BME280;59838;52.152;5.436;2023-06-14T06:42:41;101792.97;;;25.35;37.58
71970;BME280;59838;52.152;5.436;2023-06-14T06:45:08;101787.38;;;25.32;37.19
71970;BME280;59838;52.152;5.436;2023-06-14T06:47:35;101796.16;;;25.38;37.54
71970;BME280;59838;52.152;5.436;2023-06-14T06:50:02;101795.25;;;25.27;38.12
71970;BME280;59838;52.152;5.436;2023-06-14T06:52:28;101801.97;;;25.34;35.39
71970;BME280;59838;52.152;5.436;2023-06-14T06:54:55;101800.03;;;25.19;38.44
71970;BME280;59838;52.152;5.436;2023-06-14T06:57:22;101804.66;;;25.40;37.41
71970;BME280;59838;52.152;5.436;2023-06-14T06:59:49;101802.63;;;25.57;36.71
71970;BME280;59838;52.152;5.436;2023-06-14T07:02:16;101807.41;;;25.55;35.53
71970;BME280;59838;52.152;5.436;2023-06-14T07:04:43;101813.06;;;25.21;36.74
71970;BME280;59838;52.152;5.436;2023-06-14T07:07:09;101810.88;;;25.13;36.71
71970;BME280;59838;52.152;5.436;2023-06-14T07:09:36;101811.84;;;24.96;37.04
71970;BME280;59838;52.152;5.436;2023-06-14T07:12:03;101816.69;;;25.05;37.38
71970;BME280;59838;52.152;5.436;2023-06-14T07:14:29;101811.44;;;25.20;38.20
71970;BME280;59838;52.152;5.436;2023-06-14T07:16:56;101818.97;;;25.28;36.50
71970;BME280;59838;52.152;5.436;2023-06-14T07:19:23;101820.66;;;25.02;36.67
71970;BME280;59838;52.152;5.436;2023-06-14T07:21:49;101823.94;;;24.77;37.38
71970;BME280;59838;52.152;5.436;2023-06-14T07:24:16;101811.84;;;24.59;36.51
71970;BME280;59838;52.152;5.436;2023-06-14T07:26:43;101824.13;;;25.03;36.26
71970;BME280;59838;52.152;5.436;2023-06-14T07:29:09;101829.50;;;25.13;36.82
71970;BME280;59838;52.152;5.436;2023-06-14T07:31:36;101820.53;;;25.24;37.87
71970;BME280;59838;52.152;5.436;2023-06-14T07:34:03;101843.34;;;25.20;37.49
71970;BME280;59838;52.152;5.436;2023-06-14T07:36:29;101831.50;;;24.95;38.45
71970;BME280;59838;52.152;5.436;2023-06-14T07:38:56;101833.50;;;24.78;37.04
71970;BME280;59838;52.152;5.436;2023-06-14T07:41:22;101825.38;;;24.57;36.50
71970;BME280;59838;52.152;5.436;2023-06-14T07:43:49;101829.38;;;24.60;36.75
71970;BME280;59838;52.152;5.436;2023-06-14T07:46:16;101832.16;;;24.75;37.69
71970;BME280;59838;52.152;5.436;2023-06-14T07:48:42;101831.75;;;24.34;36.46
71970;BME280;59838;52.152;5.436;2023-06-14T07:51:09;101826.78;;;23.88;38.48
71970;BME280;59838;52.152;5.436;2023-06-14T07:53:35;101835.78;;;23.48;38.81
71970;BME280;59838;52.152;5.436;2023-06-14T07:56:02;101842.34;;;23.07;38.88
71970;BME280;59838;52.152;5.436;2023-06-14T07:58:29;101840.50;;;23.07;40.79
71970;BME280;59838;52.152;5.436;2023-06-14T08:00:55;101845.13;;;23.34;39.85
71970;BME280;59838;52.152;5.436;2023-06-14T08:03:22;101841.69;;;23.33;41.42
71970;BME280;59838;52.152;5.436;2023-06-14T08:05:49;101849.22;;;23.42;39.75
71970;BME280;59838;52.152;5.436;2023-06-14T08:08:16;101851.16;;;23.46;40.05
71970;BME280;59838;52.152;5.436;2023-06-14T08:10:42;101846.63;;;23.47;39.71
71970;BME280;59838;52.152;5.436;2023-06-14T08:13:08;101842.88;;;23.43;38.41
71970;BME280;59838;52.152;5.436;2023-06-14T08:15:36;101839.22;;;23.27;39.32
71970;BME280;59838;52.152;5.436;2023-06-14T08:18:02;101844.50;;;23.27;38.41
71970;BME280;59838;52.152;5.436;2023-06-14T08:20:29;101845.31;;;23.27;40.86
71970;BME280;59838;52.152;5.436;2023-06-14T08:22:57;101834.09;;;23.42;39.01
71970;BME280;59838;52.152;5.436;2023-06-14T08:25:24;101839.84;;;23.73;39.17
71970;BME280;59838;52.152;5.436;2023-06-14T08:27:51;101841.59;;;23.84;37.88
71970;BME280;59838;52.152;5.436;2023-06-14T08:30:17;101832.63;;;23.90;39.45
71970;BME280;59838;52.152;5.436;2023-06-14T08:32:44;101839.06;;;23.95;39.42
71970;BME280;59838;52.152;5.436;2023-06-14T08:35:11;101850.16;;;23.91;38.48
71970;BME280;59838;52.152;5.436;2023-06-14T08:37:39;101849.44;;;23.79;39.10
71970;BME280;59838;52.152;5.436;2023-06-14T08:40:22;101848.72;;;23.84;37.66
71970;BME280;59838;52.152;5.436;2023-06-14T08:42:54;101843.63;;;23.99;38.89
71970;BME280;59838;52.152;5.436;2023-06-14T08:45:21;101840.19;;;24.26;38.51
71970;BME280;59838;52.152;5.436;2023-06-14T08:47:51;101833.88;;;24.32;37.92
71970;BME280;59838;52.152;5.436;2023-06-14T08:50:21;101841.88;;;24.37;39.32
71970;BME280;59838;52.152;5.436;2023-06-14T08:52:55;101841.13;;;24.42;37.20
71970;BME280;59838;52.152;5.436;2023-06-14T08:55:23;101846.72;;;24.45;36.57
71970;BME280;59838;52.152;5.436;2023-06-14T08:57:55;101850.50;;;24.50;39.59
71970;BME280;59838;52.152;5.436;2023-06-14T09:00:25;101842.03;;;24.25;37.67
71970;BME280;59838;52.152;5.436;2023-06-14T09:02:52;101841.69;;;24.17;37.29
71970;BME280;59838;52.152;5.436;2023-06-14T09:05:24;101841.28;;;24.30;34.57
71970;BME280;59838;52.152;5.436;2023-06-14T09:07:51;101845.88;;;24.13;35.60
71970;BME280;59838;52.152;5.436;2023-06-14T09:10:20;101846.94;;;24.12;36.21
71970;BME280;59838;52.152;5.436;2023-06-14T09:12:47;101845.13;;;24.17;35.08
71970;BME280;59838;52.152;5.436;2023-06-14T09:15:14;101850.31;;;24.07;34.74
71970;BME280;59838;52.152;5.436;2023-06-14T09:17:41;101845.97;;;24.23;35.19
71970;BME280;59838;52.152;5.436;2023-06-14T09:20:08;101855.22;;;24.15;34.68
71970;BME280;59838;52.152;5.436;2023-06-14T09:22:37;101845.47;;;24.26;33.96
71970;BME280;59838;52.152;5.436;2023-06-14T09:25:05;101852.91;;;24.24;35.46
71970;BME280;59838;52.152;5.436;2023-06-14T09:27:32;101841.19;;;24.47;35.73
71970;BME280;59838;52.152;5.436;2023-06-14T09:30:04;101838.31;;;24.54;34.17
71970;BME280;59838;52.152;5.436;2023-06-14T09:32:31;101852.97;;;24.84;36.68
71970;BME280;59838;52.152;5.436;2023-06-14T09:34:58;101854.84;;;24.88;35.89
71970;BME280;59838;52.152;5.436;2023-06-14T09:37:31;101851.88;;;24.85;34.56
71970;BME280;59838;52.152;5.436;2023-06-14T09:39:58;101860.16;;;24.88;34.03
71970;BME280;59838;52.152;5.436;2023-06-14T09:42:25;101869.03;;;25.04;36.61
71970;BME280;59838;52.152;5.436;2023-06-14T09:44:55;101852.25;;;24.98;35.71
71970;BME280;59838;52.152;5.436;2023-06-14T09:47:22;101850.88;;;24.91;34.83
71970;BME280;59838;52.152;5.436;2023-06-14T09:49:50;101848.38;;;25.11;35.95
71970;BME280;59838;52.152;5.436;2023-06-14T09:52:18;101843.44;;;24.93;34.67
71970;BME280;59838;52.152;5.436;2023-06-14T09:54:46;101856.09;;;24.75;34.08
71970;BME280;59838;52.152;5.436;2023-06-14T09:57:14;101839.78;;;24.67;35.19
71970;BME280;59838;52.152;5.436;2023-06-14T09:59:44;101861.72;;;24.84;33.00
71970;BME280;59838;52.152;5.436;2023-06-14T10:02:22;101868.00;;;24.73;31.84
71970;BME280;59838;52.152;5.436;2023-06-14T10:05:14;101839.03;;;24.71;34.03
71970;BME280;59838;52.152;5.436;2023-06-14T10:07:48;101845.69;;;24.74;33.10
71970;BME280;59838;52.152;5.436;2023-06-14T10:10:16;101836.88;;;24.68;32.51
71970;BME280;59838;52.152;5.436;2023-06-14T10:12:43;101856.84;;;24.71;34.44
71970;BME280;59838;52.152;5.436;2023-06-14T10:15:17;101834.47;;;24.67;33.38
71970;BME280;59838;52.152;5.436;2023-06-14T10:17:54;101851.28;;;24.72;35.78
71970;BME280;59838;52.152;5.436;2023-06-14T10:20:34;101843.16;;;24.89;34.93
71970;BME280;59838;52.152;5.436;2023-06-14T10:23:23;101838.50;;;25.07;35.40
71970;BME280;59838;52.152;5.436;2023-06-14T10:25:55;101842.78;;;25.13;33.80
71970;BME280;59838;52.152;5.436;2023-06-14T10:28:23;101846.16;;;24.98;34.56
71970;BME280;59838;52.152;5.436;2023-06-14T10:31:10;101834.34;;;25.21;34.41
71970;BME280;59838;52.152;5.436;2023-06-14T10:33:56;101844.06;;;25.48;37.13
71970;BME280;59838;52.152;5.436;2023-06-14T10:36:30;101834.34;;;25.21;34.82
71970;BME280;59838;52.152;5.436;2023-06-14T10:39:08;101826.91;;;25.23;32.51
71970;BME280;59838;52.152;5.436;2023-06-14T10:41:37;101846.16;;;24.98;33.63
71970;BME280;59838;52.152;5.436;2023-06-14T10:46:40;101829.38;;;24.97;34.06
71970;BME280;59838;52.152;5.436;2023-06-14T10:49:10;101847.22;;;25.02;34.35
71970;BME280;59838;52.152;5.436;2023-06-14T10:51:42;101837.09;;;24.99;35.47
71970;BME280;59838;52.152;5.436;2023-06-14T10:54:12;101829.00;;;25.21;34.47
71970;BME280;59838;52.152;5.436;2023-06-14T10:56:50;101835.09;;;25.16;33.72
71970;BME280;59838;52.152;5.436;2023-06-14T10:59:18;101830.63;;;25.22;35.99
71970;BME280;59838;52.152;5.436;2023-06-14T11:02:14;101828.59;;;25.34;34.27
71970;BME280;59838;52.152;5.436;2023-06-14T11:04:47;101839.22;;;25.34;33.86
71970;BME280;59838;52.152;5.436;2023-06-14T11:12:54;101841.63;;;24.98;34.21
71970;BME280;59838;52.152;5.436;2023-06-14T11:15:28;101827.03;;;25.01;35.34
71970;BME280;59838;52.152;5.436;2023-06-14T11:17:55;101832.69;;;25.15;35.69
71970;BME280;59838;52.152;5.436;2023-06-14T11:20:24;101824.50;;;25.22;34.18
71970;BME280;59838;52.152;5.436;2023-06-14T11:22:54;101828.47;;;25.14;34.50
71970;BME280;59838;52.152;5.436;2023-06-14T11:25:20;101828.84;;;25.33;33.68
71970;BME280;59838;52.152;5.436;2023-06-14T11:27:49;101824.38;;;25.44;33.68
71970;BME280;59838;52.152;5.436;2023-06-14T11:30:16;101829.47;;;25.50;32.55
71970;BME280;59838;52.152;5.436;2023-06-14T11:32:46;101821.56;;;25.23;33.52
71970;BME280;59838;52.152;5.436;2023-06-14T11:35:14;101823.72;;;25.26;33.39
71970;BME280;59838;52.152;5.436;2023-06-14T11:37:41;101826.88;;;25.18;33.58
71970;BME280;59838;52.152;5.436;2023-06-14T11:40:08;101821.81;;;25.16;33.76
71970;BME280;59838;52.152;5.436;2023-06-14T11:42:36;101820.66;;;25.02;32.72
71970;BME280;59838;52.152;5.436;2023-06-14T11:45:06;101821.00;;;25.11;34.38
71970;BME280;59838;52.152;5.436;2023-06-14T11:47:41;101805.84;;;25.16;33.89
71970;BME280;59838;52.152;5.436;2023-06-14T11:50:09;101818.19;;;25.33;35.82
71970;BME280;59838;52.152;5.436;2023-06-14T11:52:36;101814.50;;;25.39;34.54
71970;BME280;59838;52.152;5.436;2023-06-14T11:55:04;101813.28;;;25.62;33.34
71970;BME280;59838;52.152;5.436;2023-06-14T11:57:34;101820.22;;;25.63;33.94
71970;BME280;59838;52.152;5.436;2023-06-14T12:00:10;101811.69;;;25.56;34.63
71970;BME280;59838;52.152;5.436;2023-06-14T12:02:42;101815.41;;;25.60;34.58
71970;BME280;59838;52.152;5.436;2023-06-14T12:05:08;101818.66;;;25.72;33.49
71970;BME280;59838;52.152;5.436;2023-06-14T12:07:37;101814.13;;;25.78;32.92
71970;BME280;59838;52.152;5.436;2023-06-14T12:10:04;101810.59;;;25.52;34.24
71970;BME280;59838;52.152;5.436;2023-06-14T12:12:38;101825.88;;;25.87;33.67
71970;BME280;59838;52.152;5.436;2023-06-14T12:15:06;101817.03;;;25.61;32.53
71970;BME280;59838;52.152;5.436;2023-06-14T12:17:35;101816.78;;;25.73;33.30
71970;BME280;59838;52.152;5.436;2023-06-14T12:20:06;101822.09;;;25.68;35.64
71970;BME280;59838;52.152;5.436;2023-06-14T12:22:55;101819.69;;;25.66;34.29
71970;BME280;59838;52.152;5.436;2023-06-14T12:25:32;101815.75;;;25.74;35.04
71970;BME280;59838;52.152;5.436;2023-06-14T12:28:09;101819.13;;;25.59;35.62
71970;BME280;59838;52.152;5.436;2023-06-14T12:30:37;101819.94;;;25.65;33.15
71970;BME280;59838;52.152;5.436;2023-06-14T12:33:04;101827.69;;;25.71;36.49
71970;BME280;59838;52.152;5.436;2023-06-14T12:35:32;101820.88;;;26.01;35.71
71970;BME280;59838;52.152;5.436;2023-06-14T12:37:58;101808.13;;;25.98;33.56
71970;BME280;59838;52.152;5.436;2023-06-14T12:40:25;101815.75;;;25.84;35.19
71970;BME280;59838;52.152;5.436;2023-06-14T12:42:52;101812.03;;;25.85;33.55
71970;BME280;59838;52.152;5.436;2023-06-14T12:45:19;101816.03;;;25.83;34.56
71970;BME280;59838;52.152;5.436;2023-06-14T12:47:45;101819.72;;;25.77;32.81
71970;BME280;59838;52.152;5.436;2023-06-14T12:50:12;101811.63;;;25.51;32.67
71970;BME280;59838;52.152;5.436;2023-06-14T12:52:39;101821.22;;;25.52;34.76
71970;BME280;59838;52.152;5.436;2023-06-14T12:55:05;101818.84;;;25.55;35.09
71970;BME280;59838;52.152;5.436;2023-06-14T12:57:33;101815.75;;;25.79;33.70
71970;BME280;59838;52.152;5.436;2023-06-14T13:00:01;101818.16;;;25.86;31.06
71970;BME280;59838;52.152;5.436;2023-06-14T13:02:27;101814.59;;;25.54;32.19
71970;BME280;59838;52.152;5.436;2023-06-14T13:04:55;101817.78;;;25.57;33.50
71970;BME280;59838;52.152;5.436;2023-06-14T13:07:22;101821.56;;;25.66;32.51